Time;durP1;ratioP1;P1;durP2;ratioP2;P2;SDS_P1;SDS_P2;PMS_P1;PMS_P2;Temp;Humidity;BMP_temperature;BMP_pressure;BME280_temperature;BME280_humidity;BME280_pressure;Samples;Min_cycle;Max_cycle;Signal;HPM_P1;HPM_P2
2022/06/17 00:01:55;;;;;;;14.53;11.15;;;;;;;13.42;91.37;99050.84;2209584;79;20964;-78
2022/06/17 00:04:55;;;;;;;13.55;12.20;;;;;;;13.36;91.75;99045.13;2209227;79;20961;-77
2022/06/17 00:07:55;;;;;;;22.95;20.55;;;;;;;13.36;92.20;99043.82;2209814;81;20961;-78
2022/06/17 00:10:56;;;;;;;20.85;18.32;;;;;;;13.36;92.10;99043.82;2209835;79;21309;-78
2022/06/17 00:13:56;;;;;;;17.62;14.30;;;;;;;13.36;92.63;99045.13;2209851;79;20937;-78
2022/06/17 00:16:57;;;;;;;14.28;12.93;;;;;;;13.38;93.09;99034.22;2218224;79;20936;-78
2022/06/17 00:19:57;;;;;;;13.68;12.30;;;;;;;13.34;92.40;99040.75;2237383;79;21283;-78
2022/06/17 00:22:57;;;;;;;12.93;11.83;;;;;;;13.31;92.46;99039.43;2237114;79;20963;-78
2022/06/17 00:25:58;;;;;;;15.38;12.50;;;;;;;13.27;92.08;99038.55;2237127;79;20971;-78
2022/06/17 00:28:58;;;;;;;26.10;14.03;;;;;;;13.26;93.01;99039.84;2237132;80;20904;-78
2022/06/17 00:31:59;;;;;;;14.00;12.70;;;;;;;13.26;93.41;99039.84;2237403;79;20876;-78
2022/06/17 00:34:59;;;;;;;15.10;12.03;;;;;;;13.21;92.66;99037.64;2237266;79;20924;-78
2022/06/17 00:37:59;;;;;;;15.83;13.58;;;;;;;13.19;92.98;99034.14;2236987;79;20995;-78
2022/06/17 00:41:00;;;;;;;16.45;14.87;;;;;;;13.17;93.05;99032.82;2237465;79;20943;-78
2022/06/17 00:44:00;;;;;;;18.17;16.30;;;;;;;13.16;93.24;99034.97;2237468;79;20940;-79
2022/06/17 00:47:01;;;;;;;18.00;14.95;;;;;;;13.16;93.57;99041.52;2237641;79;21342;-78
2022/06/17 00:50:01;;;;;;;258.17;21.90;;;;;;;13.17;93.71;99047.23;2237510;79;20928;-79
2022/06/17 00:53:01;;;;;;;315.45;20.90;;;;;;;13.22;94.97;99046.83;2237528;79;20956;-80
2022/06/17 00:56:02;;;;;;;246.82;107.72;;;;;;;13.22;95.12;99054.69;2237105;79;21375;-81
2022/06/17 00:59:02;;;;;;;349.62;208.35;;;;;;;14.17;100.00;99049.28;2236852;79;20951;-81
2022/06/17 01:02:03;;;;;;;133.32;43.92;;;;;;;15.33;99.31;99049.59;2237303;79;20998;-79
2022/06/17 01:05:03;;;;;;;202.70;24.90;;;;;;;15.37;90.47;99047.38;2237621;79;20974;-79
2022/06/17 01:08:04;;;;;;;117.13;19.73;;;;;;;14.86;89.07;99050.61;2237395;79;21019;-78
2022/06/17 01:11:04;;;;;;;163.40;18.50;;;;;;;14.46;89.23;99050.63;2237407;79;21300;-78
2022/06/17 01:14:04;;;;;;;78.12;17.60;;;;;;;14.18;89.71;99051.03;2237538;79;20911;-78
2022/06/17 01:17:05;;;;;;;82.97;18.40;;;;;;;13.94;90.09;99057.13;2237604;79;20940;-78
2022/06/17 01:20:05;;;;;;;39.42;14.07;;;;;;;13.74;90.71;99054.87;2237718;79;20927;-78
2022/06/17 01:23:06;;;;;;;30.77;15.60;;;;;;;13.56;89.77;99053.50;2237318;79;21323;-78
2022/06/17 01:26:06;;;;;;;61.50;14.90;;;;;;;13.42;90.17;99056.08;2236985;79;20975;-79
2022/06/17 01:29:06;;;;;;;25.37;15.53;;;;;;;13.30;89.55;99058.66;2237182;79;20906;-79
2022/06/17 01:32:07;;;;;;;23.05;15.15;;;;;;;13.14;89.50;99067.28;2237507;79;20955;-80
2022/06/17 01:35:09;;;;;;;29.72;13.70;;;;;;;13.06;90.09;99072.05;2237428;79;20975;-80
2022/06/17 01:38:08;;;;;;;56.85;14.73;;;;;;;13.04;90.57;99072.47;2237146;79;21054;-79
2022/06/17 01:41:08;;;;;;;95.57;15.18;;;;;;;13.03;90.66;99076.39;2237147;79;20916;-79
2022/06/17 01:44:08;;;;;;;69.40;14.65;;;;;;;12.99;91.30;99079.40;2237479;79;20928;-79
2022/06/17 01:47:11;;;;;;;41.60;14.53;;;;;;;12.96;92.42;99082.44;2237259;79;21286;-79
2022/06/17 01:50:09;;;;;;;34.13;15.95;;;;;;;12.91;92.79;99097.25;2237167;79;20920;-79
2022/06/17 01:53:10;;;;;;;19.10;16.00;;;;;;;12.86;93.11;99096.34;2237371;79;20943;-79
2022/06/17 01:56:10;;;;;;;26.52;16.60;;;;;;;12.82;93.25;99093.26;2237499;79;20920;-79
2022/06/17 01:59:10;;;;;;;20.00;16.67;;;;;;;12.81;93.64;99099.36;2237359;79;20892;-78
2022/06/17 02:02:13;;;;;;;21.23;16.40;;;;;;;12.78;93.88;99100.22;2236980;79;20983;-80
2022/06/17 02:05:11;;;;;;;33.75;17.30;;;;;;;12.77;94.11;99098.47;2237118;79;20943;-79
2022/06/17 02:08:12;;;;;;;46.30;18.67;;;;;;;12.76;94.06;99111.13;2236216;79;20960;-80
2022/06/17 02:11:13;;;;;;;37.93;18.45;;;;;;;12.73;94.16;99112.41;2237585;79;21339;-80
2022/06/17 02:14:13;;;;;;;26.12;18.45;;;;;;;12.70;94.19;99119.81;2237270;79;20975;-79
2022/06/17 02:17:13;;;;;;;27.67;18.70;;;;;;;12.66;94.31;99123.70;2237274;79;20967;-79
2022/06/17 02:20:13;;;;;;;24.35;18.85;;;;;;;12.65;94.48;99128.06;2237269;79;20936;-80
2022/06/17 02:23:14;;;;;;;21.45;17.45;;;;;;;12.66;94.58;99135.05;2237460;79;21330;-78
2022/06/17 02:26:14;;;;;;;18.60;16.62;;;;;;;12.66;94.58;99128.51;2237502;79;20994;-80
2022/06/17 02:29:15;;;;;;;20.60;16.77;;;;;;;12.67;94.79;99129.38;2237876;79;20962;-79
2022/06/17 02:32:15;;;;;;;18.90;16.90;;;;;;;12.69;94.89;99132.45;2237871;79;20916;-78
2022/06/17 02:35:15;;;;;;;19.23;17.20;;;;;;;12.68;94.97;99133.76;2238032;79;20927;-79
2022/06/17 02:38:16;;;;;;;21.05;15.93;;;;;;;12.69;94.93;99136.82;2237657;79;21379;-79
2022/06/17 02:41:17;;;;;;;18.85;16.95;;;;;;;12.70;94.78;99142.50;2237307;79;20944;-79
2022/06/17 02:44:17;;;;;;;18.67;16.50;;;;;;;12.72;94.83;99141.65;2237799;79;20972;-79
2022/06/17 02:47:17;;;;;;;21.45;17.35;;;;;;;12.74;94.84;99137.73;2237730;79;20928;-80
2022/06/17 02:50:17;;;;;;;21.23;19.00;;;;;;;12.76;94.83;99145.17;2237863;79;20967;-81
2022/06/17 02:53:18;;;;;;;20.68;18.62;;;;;;;12.78;94.85;99147.37;2237053;79;21394;-80
2022/06/17 02:56:18;;;;;;;20.00;18.00;;;;;;;12.79;94.69;99146.94;2236477;79;21014;-80
2022/06/17 02:59:19;;;;;;;20.82;18.30;;;;;;;12.79;94.76;99152.17;2237704;79;20913;-79
2022/06/17 03:02:19;;;;;;;20.45;18.20;;;;;;;12.81;94.68;99158.30;2237276;79;20928;-80
2022/06/17 03:05:23;;;;;;;26.30;18.50;;;;;;;12.87;94.78;99157.05;2236766;79;21446;-80
2022/06/17 03:08:23;;;;;;;21.33;18.87;;;;;;;12.92;94.70;99156.20;2236204;79;20998;-80
2022/06/17 03:11:23;;;;;;;20.50;18.00;;;;;;;12.95;94.83;99148.80;2235765;79;21628;-79
2022/06/17 03:14:24;;;;;;;21.42;19.32;;;;;;;13.01;94.76;99159.36;2235458;79;21349;-80
2022/06/17 03:17:24;;;;;;;24.47;21.77;;;;;;;13.07;94.63;99168.58;2228924;79;20988;-79
2022/06/17 03:20:25;;;;;;;26.02;22.40;;;;;;;13.12;94.45;99176.04;2208674;79;20890;-80
2022/06/17 03:23:25;;;;;;;25.30;21.17;;;;;;;13.19;94.72;99176.99;2209754;79;20953;-79
2022/06/17 03:26:28;;;;;;;23.15;20.40;;;;;;;13.23;94.72;99190.56;2209597;79;20996;-80
2022/06/17 03:29:29;;;;;;;27.62;21.20;;;;;;;13.26;94.89;99182.28;2209403;79;20956;-79
2022/06/17 03:32:29;;;;;;;27.00;21.07;;;;;;;13.32;95.09;99181.02;2208635;79;20956;-79
2022/06/17 03:35:31;;;;;;;35.48;22.52;;;;;;;13.40;95.30;99182.37;2208562;79;21288;-79
2022/06/17 03:38:30;;;;;;;29.95;22.05;;;;;;;13.41;94.98;99195.05;2208195;79;21039;-78
2022/06/17 03:41:30;;;;;;;24.12;20.43;;;;;;;13.44;95.07;99186.76;2209043;79;20975;-78
2022/06/17 03:44:31;;;;;;;27.65;22.32;;;;;;;13.53;95.18;99190.75;2208378;79;21008;-78
2022/06/17 03:47:31;;;;;;;44.48;22.07;;;;;;;13.61;94.89;99193.41;2208384;79;20964;-79
2022/06/17 03:50:32;;;;;;;37.80;20.97;;;;;;;13.68;94.79;99196.50;2208275;79;20976;-79
2022/06/17 03:53:32;;;;;;;32.10;21.75;;;;;;;13.75;94.58;99193.48;2207053;79;20960;-78
2022/06/17 03:56:32;;;;;;;34.30;23.05;;;;;;;13.86;94.36;99197.02;2207753;79;21086;-80
2022/06/17 03:59:34;;;;;;;30.23;22.13;;;;;;;13.97;94.13;99198.86;2208216;79;20968;-79
2022/06/17 04:02:33;;;;;;;25.25;21.52;;;;;;;14.11;93.75;99213.34;2209544;79;20980;-79
2022/06/17 04:05:34;;;;;;;21.87;19.20;;;;;;;14.23;92.85;99212.06;2208836;79;21007;-79
2022/06/17 04:08:35;;;;;;;20.00;17.77;;;;;;;14.36;92.65;99219.54;2207277;79;20980;-79
2022/06/17 04:11:34;;;;;;;21.42;18.40;;;;;;;14.51;91.69;99215.67;2206451;79;21017;-79
2022/06/17 04:14:35;;;;;;;19.77;17.62;;;;;;;14.68;91.77;99209.56;2207658;79;21943;-79
2022/06/17 04:17:35;;;;;;;20.12;17.67;;;;;;;14.87;91.23;99213.99;2213795;79;21054;-76
2022/06/17 04:20:38;;;;;;;21.35;17.02;;;;;;;15.03;90.48;99222.76;2233715;79;20951;-80
2022/06/17 04:23:38;;;;;;;18.87;16.45;;;;;;;15.10;89.70;99224.06;2213621;80;20908;-78
2022/06/17 04:26:38;;;;;;;18.15;16.02;;;;;;;15.18;88.87;99220.12;2234302;79;21003;-78
2022/06/17 04:29:39;;;;;;;17.90;15.58;;;;;;;15.32;88.23;99228.00;2236189;79;20979;-78
2022/06/17 04:32:40;;;;;;;18.75;16.27;;;;;;;15.35;87.81;99230.19;2234575;80;21021;-80
2022/06/17 04:35:40;;;;;;;16.57;14.78;;;;;;;15.41;87.77;99228.86;2233447;79;20959;-79
2022/06/17 04:38:40;;;;;;;17.52;15.85;;;;;;;15.50;87.07;99234.55;2233585;79;20999;-80
2022/06/17 04:41:40;;;;;;;17.05;15.45;;;;;;;15.62;87.23;99234.59;2235151;79;20948;-79
2022/06/17 04:44:41;;;;;;;19.35;15.55;;;;;;;15.79;86.90;99230.16;2235686;79;21419;-79
2022/06/17 04:47:41;;;;;;;17.07;15.30;;;;;;;15.85;86.02;99230.14;2236570;79;21019;-78
2022/06/17 04:50:42;;;;;;;15.18;13.58;;;;;;;15.80;85.71;99230.59;2234670;79;20983;-79
2022/06/17 04:53:42;;;;;;;15.98;13.95;;;;;;;15.91;85.62;99231.44;2236068;79;20978;-80
2022/06/17 04:56:42;;;;;;;17.30;15.50;;;;;;;16.09;85.44;99237.07;2235821;79;21366;-80
2022/06/17 04:59:44;;;;;;;19.55;17.32;;;;;;;16.23;84.10;99250.17;2234702;79;20991;-76
2022/06/17 05:02:43;;;;;;;17.87;15.90;;;;;;;16.42;83.41;99261.06;2235058;79;21033;-80
2022/06/17 05:05:44;;;;;;;17.25;15.32;;;;;;;16.70;82.28;99257.89;2235947;79;21369;-81
2022/06/17 05:08:44;;;;;;;15.48;13.13;;;;;;;16.76;81.95;99268.40;2233938;79;20986;-81
2022/06/17 05:11:44;;;;;;;15.35;13.83;;;;;;;16.46;81.65;99273.78;2233859;79;20951;-80
2022/06/17 05:14:45;;;;;;;15.43;13.90;;;;;;;16.26;82.18;99267.28;2234442;80;20986;-80
2022/06/17 05:17:45;;;;;;;14.87;13.40;;;;;;;16.16;82.74;99266.89;2229603;79;21066;-81
2022/06/17 05:20:46;;;;;;;14.65;13.18;;;;;;;16.00;82.67;99265.19;2207103;79;21008;-80
2022/06/17 05:23:46;;;;;;;14.87;13.53;;;;;;;15.92;83.19;99270.04;2207543;79;21044;-81
2022/06/17 05:26:46;;;;;;;15.18;13.62;;;;;;;15.95;83.51;99266.97;2206377;79;21027;-80
2022/06/17 05:29:47;;;;;;;16.30;14.58;;;;;;;16.22;83.67;99274.77;2207274;81;21012;-80
2022/06/17 05:32:47;;;;;;;16.30;13.13;;;;;;;16.47;82.82;99270.26;2206225;79;20968;-80
2022/06/17 05:35:48;;;;;;;15.13;13.30;;;;;;;16.79;82.13;99271.46;2208000;79;20983;-79
2022/06/17 05:38:48;;;;;;;13.22;11.88;;;;;;;17.10;79.59;99282.67;2207173;79;21067;-81
2022/06/17 05:41:48;;;;;;;15.85;11.50;;;;;;;17.09;79.32;99288.83;2209178;79;20944;-80
2022/06/17 05:44:49;;;;;;;12.47;11.28;;;;;;;16.99;79.83;99289.34;2209809;79;20972;-81
2022/06/17 05:47:49;;;;;;;12.50;11.30;;;;;;;17.03;79.80;99294.15;2209781;79;20944;-80
2022/06/17 05:50:52;;;;;;;12.85;11.43;;;;;;;16.90;79.52;99297.75;2210054;79;20973;-80
2022/06/17 05:53:53;;;;;;;12.80;11.50;;;;;;;16.86;79.52;99304.81;2208713;79;20960;-80
2022/06/17 05:56:53;;;;;;;12.00;10.80;;;;;;;16.71;79.48;99305.77;2207077;79;21112;-81
2022/06/17 05:59:54;;;;;;;11.85;10.65;;;;;;;16.59;79.93;99315.47;2207153;81;21390;-83
2022/06/17 06:02:54;;;;;;;13.60;11.08;;;;;;;16.46;79.73;99318.13;2207135;79;21355;-81
2022/06/17 06:05:54;;;;;;;13.83;12.47;;;;;;;16.41;80.13;99311.12;2206885;79;21015;-81
2022/06/17 06:08:55;;;;;;;12.05;10.85;;;;;;;16.41;80.80;99313.32;2207824;80;21303;-81
2022/06/17 06:11:55;;;;;;;14.43;11.25;;;;;;;16.49;80.29;99316.83;2208481;79;20948;-80
2022/06/17 06:14:56;;;;;;;12.43;11.18;;;;;;;16.47;80.84;99308.06;2206769;79;21552;-80
2022/06/17 06:17:56;;;;;;;24.40;12.23;;;;;;;16.50;80.37;99315.95;2208092;79;21043;-81
2022/06/17 06:20:57;;;;;;;12.82;11.63;;;;;;;16.44;81.28;99326.92;2206381;81;21023;-81
2022/06/17 06:23:57;;;;;;;16.12;14.50;;;;;;;16.48;81.29;99330.89;2207221;79;20968;-82
2022/06/17 06:26:57;;;;;;;13.60;12.00;;;;;;;16.62;80.90;99338.73;2207102;79;21003;-81
2022/06/17 06:29:58;;;;;;;14.35;11.40;;;;;;;16.82;80.61;99342.62;2206627;79;20944;-80
2022/06/17 06:33:01;;;;;;;12.93;11.45;;;;;;;16.94;79.50;99334.64;2207149;79;20979;-81
2022/06/17 06:36:02;;;;;;;11.40;10.48;;;;;;;17.07;79.87;99345.55;2207305;79;20949;-79
2022/06/17 06:39:02;;;;;;;13.03;11.30;;;;;;;17.15;78.86;99350.77;2207176;81;21051;-80
2022/06/17 06:42:03;;;;;;;13.45;12.25;;;;;;;17.26;79.26;99350.26;2207635;79;21399;-80
2022/06/17 06:45:03;;;;;;;13.80;12.47;;;;;;;17.56;78.84;99354.45;2207953;79;20984;-80
2022/06/17 06:48:03;;;;;;;11.25;10.25;;;;;;;17.94;77.94;99351.51;2208495;79;20936;-79
2022/06/17 06:51:04;;;;;;;10.32;9.30;;;;;;;18.06;76.52;99352.70;2207323;79;21011;-79
2022/06/17 06:54:04;;;;;;;11.25;9.95;;;;;;;18.23;75.56;99359.16;2208304;79;21312;-80
2022/06/17 06:57:05;;;;;;;10.75;9.65;;;;;;;18.48;73.67;99357.11;2208459;79;20971;-79
2022/06/17 07:00:06;;;;;;;10.80;9.40;;;;;;;19.06;74.00;99354.61;2207420;81;20960;-80
2022/06/17 07:03:05;;;;;;;10.15;8.40;;;;;;;19.46;71.38;99350.07;2208217;79;20928;-80
2022/06/17 07:06:06;;;;;;;10.63;8.18;;;;;;;19.30;70.49;99349.89;2208467;79;21021;-78
2022/06/17 07:09:06;;;;;;;8.93;6.50;;;;;;;19.27;69.91;99345.96;2208428;79;20984;-79
2022/06/17 07:12:06;;;;;;;8.20;7.00;;;;;;;19.68;70.14;99343.55;2208187;79;21371;-79
2022/06/17 07:15:09;;;;;;;6.40;5.53;;;;;;;19.99;68.61;99337.75;2208293;79;20956;-79
2022/06/17 07:18:09;;;;;;;7.40;5.67;;;;;;;20.24;65.87;99337.70;2212225;79;21057;-80
2022/06/17 07:21:10;;;;;;;8.08;7.05;;;;;;;20.31;66.57;99331.37;2236354;79;20959;-80
2022/06/17 07:24:13;;;;;;;9.78;7.70;;;;;;;20.05;65.29;99342.94;2235541;79;21367;-80
2022/06/17 07:27:12;;;;;;;7.50;6.75;;;;;;;19.68;67.20;99340.91;2236045;80;20995;-82
2022/06/17 07:30:13;;;;;;;7.87;6.25;;;;;;;19.73;67.88;99345.67;2235253;79;20971;-79
2022/06/17 07:33:13;;;;;;;7.40;5.03;;;;;;;19.92;65.76;99346.23;2234432;79;21602;-80
2022/06/17 07:42:52;;;;;;;9.80;7.80;;;;;;;20.56;62.92;99337.55;2236103;80;20904;-80
2022/06/17 07:45:52;;;;;;;8.93;8.03;;;;;;;20.15;64.37;99338.34;2235314;79;20975;-81
2022/06/17 07:48:53;;;;;;;11.10;5.95;;;;;;;20.47;65.32;99335.08;2235778;79;20963;-82
2022/06/17 07:55:00;;;;;;;7.05;4.80;;;;;;;20.94;61.85;99346.05;2235973;79;20923;-81
2022/06/17 07:58:00;;;;;;;6.65;5.58;;;;;;;20.99;61.54;99345.03;2235218;79;20947;-81
2022/06/17 08:01:01;;;;;;;7.83;4.78;;;;;;;21.45;59.79;99350.64;2234524;80;21007;-81
2022/06/17 08:04:01;;;;;;;6.37;4.83;;;;;;;21.52;59.48;99347.38;2234585;79;21351;-81
2022/06/17 08:07:01;;;;;;;9.48;5.22;;;;;;;21.52;60.24;99348.25;2233525;80;20990;-80
2022/06/17 08:10:02;;;;;;;7.28;5.37;;;;;;;21.34;59.48;99350.02;2234498;79;21006;-80
2022/06/17 08:13:02;;;;;;;5.67;4.45;;;;;;;21.52;59.39;99350.91;2233814;79;21681;-81
2022/06/17 08:16:03;;;;;;;5.83;4.80;;;;;;;21.65;58.71;99343.50;2233730;79;20955;-80
2022/06/17 08:19:07;;;;;;;6.42;4.28;;;;;;;22.20;57.27;99350.09;2225217;79;20973;-81
2022/06/17 08:22:06;;;;;;;3.80;3.50;;;;;;;22.46;56.80;99352.91;2207621;79;21174;-81
2022/06/17 08:25:07;;;;;;;5.40;3.67;;;;;;;22.58;55.64;99354.38;2205958;79;20988;-81
2022/06/17 08:28:07;;;;;;;6.80;3.67;;;;;;;22.23;55.59;99360.20;2207192;79;20972;-81
2022/06/17 08:31:07;;;;;;;4.83;4.05;;;;;;;21.73;55.94;99365.92;2207293;79;20951;-81
2022/06/17 08:34:08;;;;;;;5.15;3.98;;;;;;;21.45;56.71;99371.88;2207264;79;20944;-82
2022/06/17 08:37:08;;;;;;;4.12;2.85;;;;;;;21.25;55.64;99376.33;2208007;81;20968;-80
2022/06/17 08:40:09;;;;;;;4.25;2.90;;;;;;;21.40;57.04;99375.55;2207766;79;20976;-80
2022/06/17 08:43:09;;;;;;;5.42;3.75;;;;;;;21.83;55.39;99385.59;2208173;79;20921;-80
2022/06/17 08:46:10;;;;;;;6.83;3.60;;;;;;;21.92;53.02;99387.14;2208001;81;21067;-81
2022/06/17 08:49:11;;;;;;;7.00;3.00;;;;;;;21.53;54.51;99397.80;2208810;79;21362;-80
2022/06/17 08:52:11;;;;;;;6.22;3.10;;;;;;;21.36;53.16;99393.80;2207517;79;20964;-79
2022/06/17 08:55:11;;;;;;;7.25;3.42;;;;;;;21.16;55.74;99386.25;2207402;79;20999;-82
2022/06/17 08:58:12;;;;;;;7.15;3.33;;;;;;;21.55;54.70;99388.02;2206944;79;21427;-81
2022/06/17 09:01:12;;;;;;;4.65;3.72;;;;;;;22.00;53.80;99383.83;2207488;79;21402;-80
2022/06/17 09:04:13;;;;;;;5.22;3.62;;;;;;;22.30;53.81;99379.52;2207539;79;21003;-80
2022/06/17 09:07:13;;;;;;;4.83;3.40;;;;;;;22.20;52.32;99392.64;2207118;79;20964;-80
2022/06/17 09:10:14;;;;;;;5.00;3.37;;;;;;;21.90;53.29;99395.61;2206061;79;21047;-80
2022/06/17 09:13:14;;;;;;;5.22;3.60;;;;;;;21.36;53.66;99399.98;2206489;79;20979;-78
2022/06/17 09:16:14;;;;;;;4.87;3.30;;;;;;;21.20;53.81;99399.87;2207387;79;20952;-81
2022/06/17 09:19:15;;;;;;;7.62;3.50;;;;;;;21.26;54.89;99391.80;2218356;79;21036;-79
2022/06/17 09:22:15;;;;;;;5.30;3.40;;;;;;;21.63;54.38;99398.45;2233181;78;21041;-79
2022/06/17 09:25:16;;;;;;;7.15;3.65;;;;;;;22.03;53.11;99397.53;2232195;79;21512;-79
2022/06/17 09:28:16;;;;;;;6.25;3.83;;;;;;;22.18;51.86;99395.34;2234556;79;20947;-80
2022/06/17 09:31:16;;;;;;;11.20;3.83;;;;;;;22.48;52.63;99400.75;2235143;78;20987;-80
2022/06/17 09:34:17;;;;;;;3.75;3.42;;;;;;;22.56;51.29;99400.98;2235213;79;21438;-81
2022/06/17 09:37:17;;;;;;;3.50;3.20;;;;;;;22.21;50.13;99407.23;2234984;79;20974;-81
2022/06/17 09:40:18;;;;;;;5.12;3.62;;;;;;;22.23;50.00;99394.77;2234400;79;21007;-80
2022/06/17 09:43:18;;;;;;;5.62;3.92;;;;;;;22.46;51.26;99398.13;2234347;80;21995;-82
2022/06/17 09:46:19;;;;;;;9.10;3.80;;;;;;;22.57;50.82;99388.55;2234220;79;21034;-82
2022/06/17 09:49:19;;;;;;;7.20;4.20;;;;;;;22.62;48.12;99387.97;2235511;79;20972;-82
2022/06/17 09:52:19;;;;;;;9.35;4.40;;;;;;;22.59;48.37;99396.49;2235421;79;21261;-84
2022/06/17 09:55:20;;;;;;;5.33;4.37;;;;;;;22.28;48.75;99404.41;2234649;79;20982;-82
2022/06/17 09:58:20;;;;;;;4.62;4.00;;;;;;;21.88;49.68;99404.08;2233853;79;21007;-81
2022/06/17 10:01:21;;;;;;;4.80;4.47;;;;;;;21.54;50.99;99409.30;2233363;79;21406;-81
2022/06/17 10:04:21;;;;;;;5.00;4.60;;;;;;;21.37;50.53;99408.82;2233788;80;20959;-81
2022/06/17 10:07:22;;;;;;;4.67;4.12;;;;;;;21.62;51.52;99406.01;2235039;79;20994;-82
2022/06/17 10:10:23;;;;;;;5.10;3.98;;;;;;;22.19;50.90;99401.08;2235727;79;21046;-81
2022/06/17 10:13:22;;;;;;;6.05;3.80;;;;;;;22.65;49.30;99397.65;2235084;79;20975;-80
2022/06/17 10:19:42;;;;;;;7.17;3.67;;;;;;;22.97;46.67;99392.30;2222285;80;21160;-81
2022/06/17 10:22:42;;;;;;;4.83;3.58;;;;;;;23.30;45.25;99401.05;2208560;79;20929;-83
2022/06/17 10:25:43;;;;;;;4.40;3.22;;;;;;;23.00;45.88;99411.30;2208920;79;21004;-82
2022/06/17 10:28:45;;;;;;;6.50;3.47;;;;;;;22.86;47.08;99405.92;2208393;79;21387;-81
2022/06/17 10:31:44;;;;;;;4.03;3.25;;;;;;;22.41;47.85;99413.80;2208362;79;21023;-81
2022/06/17 10:34:44;;;;;;;6.37;3.60;;;;;;;22.76;48.58;99408.40;2208796;79;20948;-81
2022/06/17 10:37:44;;;;;;;5.50;4.80;;;;;;;22.58;48.75;99414.70;2207920;79;21355;-80
2022/06/17 10:40:45;;;;;;;4.45;3.10;;;;;;;22.58;48.97;99404.06;2206401;79;21024;-81
2022/06/17 10:43:45;;;;;;;3.95;3.55;;;;;;;22.94;46.98;99400.38;2208508;79;20929;-81
2022/06/17 10:46:46;;;;;;;3.85;3.35;;;;;;;23.32;45.98;99407.20;2207994;79;21024;-81
2022/06/17 10:49:46;;;;;;;5.62;2.75;;;;;;;23.79;45.87;99406.21;2207912;80;20976;-81
2022/06/17 10:52:46;;;;;;;3.17;2.50;;;;;;;23.08;45.70;99402.62;2207769;79;21275;-81
2022/06/17 10:55:47;;;;;;;2.60;2.37;;;;;;;22.45;47.03;99400.83;2208661;79;20964;-83
2022/06/17 10:58:47;;;;;;;3.90;2.08;;;;;;;22.49;45.82;99398.50;2207402;79;20920;-81
2022/06/17 11:01:48;;;;;;;3.40;2.20;;;;;;;22.83;45.87;99402.48;2207435;79;21035;-81
2022/06/17 11:04:48;;;;;;;6.42;2.17;;;;;;;22.92;43.41;99404.00;2206854;79;20983;-81
2022/06/17 11:07:49;;;;;;;1.82;1.72;;;;;;;22.87;43.88;99393.48;2206884;79;20979;-82
2022/06/17 11:10:49;;;;;;;3.72;1.70;;;;;;;23.09;44.52;99399.92;2207764;81;21011;-81
2022/06/17 11:13:49;;;;;;;2.83;1.65;;;;;;;23.37;41.64;99389.28;2207368;81;21374;-81
2022/06/17 11:16:50;;;;;;;1.80;1.55;;;;;;;23.17;42.16;99395.69;2207163;79;20924;-81
2022/06/17 11:19:50;;;;;;;3.83;1.52;;;;;;;22.89;42.29;99391.65;2207501;79;21020;-81
2022/06/17 11:22:51;;;;;;;1.90;1.35;;;;;;;22.91;41.73;99399.13;2208951;79;20960;-82
2022/06/17 11:25:51;;;;;;;6.35;1.42;;;;;;;22.83;40.89;99405.14;2208742;79;21000;-81
2022/06/17 11:28:51;;;;;;;1.45;1.35;;;;;;;23.09;40.76;99412.36;2208213;79;20976;-82
2022/06/17 11:31:52;;;;;;;1.30;1.15;;;;;;;23.07;40.30;99417.73;2209608;79;20925;-81
2022/06/17 11:34:52;;;;;;;1.40;1.27;;;;;;;22.73;40.34;99416.47;2207644;79;21433;-80
2022/06/17 11:37:53;;;;;;;3.40;1.20;;;;;;;22.32;41.96;99412.27;2207564;81;21030;-80
2022/06/17 11:40:55;;;;;;;2.92;1.27;;;;;;;22.60;41.95;99416.41;2207396;81;20984;-82
2022/06/17 11:43:53;;;;;;;2.75;1.22;;;;;;;22.61;42.20;99427.92;2207280;79;20917;-81
2022/06/17 11:46:54;;;;;;;1.80;1.50;;;;;;;22.73;40.79;99416.93;2206964;79;21034;-82
2022/06/17 11:49:54;;;;;;;4.95;1.52;;;;;;;22.83;41.86;99420.65;2207576;79;20964;-83
2022/06/17 11:52:55;;;;;;;2.05;1.70;;;;;;;22.67;41.56;99424.63;2209176;81;20976;-80
2022/06/17 11:55:55;;;;;;;6.10;1.72;;;;;;;22.36;42.35;99435.66;2208257;81;21336;-79
2022/06/17 11:58:55;;;;;;;1.77;1.37;;;;;;;22.73;41.91;99416.47;2208014;79;20955;-82
2022/06/17 12:01:56;;;;;;;3.25;1.40;;;;;;;23.06;42.97;99418.65;2208616;79;20917;-81
2022/06/17 12:04:59;;;;;;;5.47;1.35;;;;;;;23.40;40.31;99413.16;2208680;79;20987;-81
2022/06/17 12:07:58;;;;;;;3.02;1.95;;;;;;;23.66;41.05;99408.41;2206816;79;21006;-80
2022/06/17 12:10:57;;;;;;;2.92;1.50;;;;;;;23.97;41.24;99414.93;2207132;79;21043;-81
2022/06/17 12:13:58;;;;;;;7.55;2.30;;;;;;;23.74;39.08;99422.81;2208006;79;21455;-82
2022/06/17 12:16:58;;;;;;;2.67;1.57;;;;;;;23.64;40.74;99429.36;2206954;79;20964;-81
2022/06/17 12:19:58;;;;;;;2.27;1.75;;;;;;;23.55;41.90;99417.66;2206325;79;21039;-80
2022/06/17 12:22:59;;;;;;;5.83;1.40;;;;;;;23.86;39.71;99415.75;2206542;79;21387;-80
2022/06/17 12:25:59;;;;;;;3.55;1.55;;;;;;;23.61;39.99;99409.48;2207197;81;21035;-81
2022/06/17 12:29:00;;;;;;;1.95;1.47;;;;;;;23.22;40.11;99419.06;2208108;79;21023;-83
2022/06/17 12:32:00;;;;;;;7.25;1.65;;;;;;;23.42;40.21;99406.03;2207601;79;20952;-83
2022/06/17 12:35:02;;;;;;;4.78;1.65;;;;;;;23.22;41.13;99403.08;2208186;79;21051;-82
2022/06/17 12:38:01;;;;;;;1.90;1.45;;;;;;;22.92;42.74;99410.20;2208884;79;20949;-81
2022/06/17 12:41:03;;;;;;;3.05;1.80;;;;;;;22.98;42.52;99401.16;2208610;79;21488;-83
2022/06/17 12:44:02;;;;;;;6.05;2.15;;;;;;;22.84;43.55;99421.06;2210086;81;20928;-82
2022/06/17 12:47:02;;;;;;;2.92;1.70;;;;;;;22.87;41.76;99414.32;2210801;79;21095;-83
2022/06/17 12:53:18;;;;;;;3.22;1.90;;;;;;;23.36;42.59;99412.84;2209977;79;20925;-81
2022/06/17 12:56:18;;;;;;;2.87;1.95;;;;;;;23.95;41.44;99411.45;2209986;79;20920;-83
2022/06/17 12:59:19;;;;;;;4.53;1.72;;;;;;;24.19;39.84;99412.87;2210474;79;20953;-82
2022/06/17 13:02:19;;;;;;;1.50;1.40;;;;;;;23.99;40.00;99407.75;2209804;79;20976;-82
2022/06/17 13:05:20;;;;;;;4.83;1.82;;;;;;;24.09;40.98;99410.52;2210227;79;20984;-83
2022/06/17 13:08:20;;;;;;;2.10;1.47;;;;;;;23.78;41.41;99418.67;2209806;79;20956;-83
2022/06/17 13:11:21;;;;;;;2.87;1.72;;;;;;;23.60;41.57;99407.27;2210232;79;21355;-83
2022/06/17 13:14:21;;;;;;;4.05;1.60;;;;;;;23.57;41.39;99411.83;2210251;79;20921;-83
2022/06/17 13:17:23;;;;;;;3.05;1.75;;;;;;;23.69;42.27;99408.31;2210193;81;20956;-82
2022/06/17 13:20:24;;;;;;;1.75;1.40;;;;;;;23.72;40.25;99414.87;2210588;81;20969;-82
2022/06/17 13:23:24;;;;;;;3.08;1.80;;;;;;;23.53;41.26;99408.81;2210209;81;21692;-83
2022/06/17 13:26:24;;;;;;;4.17;2.25;;;;;;;23.35;42.40;99412.44;2210501;79;21007;-83
2022/06/17 13:29:25;;;;;;;3.72;1.65;;;;;;;23.24;42.49;99418.55;2209572;79;21023;-82
2022/06/17 13:32:27;;;;;;;2.35;1.70;;;;;;;23.45;42.22;99417.92;2209787;79;20980;-84
2022/06/17 13:35:28;;;;;;;4.65;2.10;;;;;;;23.45;40.34;99412.59;2209921;81;20932;-81
2022/06/17 13:38:28;;;;;;;3.58;1.67;;;;;;;23.23;41.04;99414.14;2210159;79;20929;-82
2022/06/17 13:41:29;;;;;;;3.58;1.62;;;;;;;22.90;40.90;99412.48;2209809;79;20996;-83
2022/06/17 13:44:30;;;;;;;3.35;1.90;;;;;;;22.81;42.20;99408.30;2209713;79;20969;-80
2022/06/17 13:47:29;;;;;;;2.33;1.70;;;;;;;22.82;42.41;99406.05;2209507;79;20921;-80
2022/06/17 13:50:30;;;;;;;3.25;1.80;;;;;;;22.95;42.53;99413.23;2210163;79;21309;-81
2022/06/17 13:53:34;;;;;;;6.80;2.35;;;;;;;23.08;42.96;99407.95;2210115;79;20924;-83
2022/06/17 13:56:33;;;;;;;3.08;1.85;;;;;;;23.20;43.39;99400.92;2209733;79;20976;-83
2022/06/17 13:59:34;;;;;;;2.30;1.90;;;;;;;23.17;42.56;99407.67;2208786;79;20961;-82
2022/06/17 14:02:34;;;;;;;7.58;1.98;;;;;;;22.96;42.70;99412.30;2207608;81;20995;-82
2022/06/17 14:05:35;;;;;;;2.58;2.02;;;;;;;23.01;42.90;99419.70;2207580;79;21023;-82
2022/06/17 14:08:35;;;;;;;4.25;1.95;;;;;;;22.98;43.22;99406.48;2208091;79;20976;-81
2022/06/17 14:11:37;;;;;;;3.27;2.00;;;;;;;22.90;43.34;99403.17;2207575;79;21179;-80
2022/06/17 14:14:36;;;;;;;4.37;2.10;;;;;;;22.79;42.75;99398.13;2208653;79;20920;-83